createdAt,value
2018-06-15T00:00:11.676Z,56.08
2018-06-15T00:01:11.718Z,56.2
2018-06-15T00:02:11.728Z,56.14
2018-06-15T00:03:11.813Z,56.15
2018-06-15T00:04:11.600Z,56.05
2018-06-15T00:05:11.646Z,56.21
2018-06-15T00:06:11.765Z,56.1
2018-06-15T00:07:11.827Z,56.03
2018-06-15T00:08:11.648Z,56.1
2018-06-15T00:09:11.796Z,56.16
2018-06-15T00:10:11.848Z,56.04
2018-06-15T00:11:11.718Z,56.09
2018-06-15T00:12:11.665Z,56.08
2018-06-15T00:13:11.710Z,55.98
2018-06-15T00:14:11.609Z,56.16
2018-06-15T00:15:11.776Z,56.05
2018-06-15T00:16:11.689Z,56.06
2018-06-15T00:17:11.638Z,55.98
2018-06-15T00:18:11.707Z,56.17
2018-06-15T00:19:11.813Z,56.15
2018-06-15T00:20:11.769Z,56.09
2018-06-15T00:21:11.690Z,56.09
2018-06-15T00:22:11.823Z,56.13
2018-06-15T00:23:11.751Z,56.1
2018-06-15T00:24:11.850Z,56.15
2018-06-15T00:25:11.726Z,56.15
2018-06-15T00:26:11.853Z,56.19
2018-06-15T00:27:11.696Z,56.14
2018-06-15T00:28:11.973Z,56.14
2018-06-15T00:29:12.012Z,56.14
2018-06-15T00:30:11.695Z,56.14
2018-06-15T00:31:11.815Z,56.17
2018-06-15T00:32:11.743Z,56.07
2018-06-15T00:33:11.798Z,56.1
2018-06-15T00:34:11.803Z,56.16
2018-06-15T00:35:11.776Z,56.13
2018-06-15T00:36:11.706Z,56.22
2018-06-15T00:37:11.746Z,56.24
2018-06-15T00:38:11.654Z,56.14
2018-06-15T00:39:11.669Z,56.12
2018-06-15T00:40:11.817Z,56.15
2018-06-15T00:41:11.636Z,56.13
2018-06-15T00:42:11.780Z,56.08
2018-06-15T00:43:11.723Z,56.04
2018-06-15T00:44:11.729Z,56.18
2018-06-15T00:45:11.895Z,56.08
2018-06-15T00:46:11.610Z,56.22
2018-06-15T00:47:11.647Z,56.09
2018-06-15T00:48:11.752Z,56.16
2018-06-15T00:49:11.628Z,56.21
2018-06-15T00:50:11.500Z,56.13
2018-06-15T00:51:11.882Z,56.08
2018-06-15T00:52:11.638Z,56.13
2018-06-15T00:53:11.759Z,56.1
2018-06-15T00:54:11.812Z,56.11
2018-06-15T00:55:11.835Z,56.06
2018-06-15T00:56:12.055Z,56
2018-06-15T00:57:11.818Z,56.06
2018-06-15T00:58:11.940Z,56.03
2018-06-15T00:59:11.636Z,56
2018-06-15T01:00:11.736Z,56
2018-06-15T01:01:11.766Z,56
2018-06-15T01:02:11.758Z,56.12
2018-06-15T01:03:11.794Z,56.1
2018-06-15T01:04:11.690Z,55.95
2018-06-15T01:05:11.710Z,55.97
2018-06-15T01:06:11.651Z,55.98
2018-06-15T01:07:11.634Z,56.02
2018-06-15T01:08:11.592Z,56.05
2018-06-15T01:09:11.622Z,56.02
2018-06-15T01:10:11.742Z,56
2018-06-15T01:11:11.747Z,55.96
2018-06-15T01:12:11.633Z,56.02
2018-06-15T01:13:11.749Z,56.04
2018-06-15T01:14:11.808Z,56.07
2018-06-15T01:15:11.763Z,56.13
2018-06-15T01:16:11.743Z,56.05
2018-06-15T01:17:11.555Z,56.1
2018-06-15T01:18:11.648Z,56.13
2018-06-15T01:19:11.567Z,56.04
2018-06-15T01:20:11.685Z,56.01
2018-06-15T01:21:11.621Z,56.02
2018-06-15T01:22:11.712Z,55.95
2018-06-15T01:23:11.919Z,56
2018-06-15T01:24:11.727Z,56.02
2018-06-15T01:25:11.764Z,56.01
2018-06-15T01:26:11.728Z,56.07
2018-06-15T01:27:11.865Z,55.95
2018-06-15T01:28:11.952Z,56.09
2018-06-15T01:29:11.791Z,56.09
2018-06-15T01:30:11.884Z,56.09
2018-06-15T01:31:11.633Z,55.98
2018-06-15T01:32:11.787Z,56.09
2018-06-15T01:33:11.674Z,56.04
2018-06-15T01:34:11.775Z,56
2018-06-15T01:35:11.653Z,56.01
2018-06-15T01:36:11.715Z,56.09
2018-06-15T01:37:11.777Z,56.1
2018-06-15T01:38:11.758Z,55.97
2018-06-15T01:39:11.839Z,56.1
2018-06-15T01:40:11.680Z,56
2018-06-15T01:41:11.682Z,56.16
2018-06-15T01:42:11.610Z,56.12
2018-06-15T01:43:11.808Z,56.02
2018-06-15T01:44:11.571Z,56.06
2018-06-15T01:45:11.646Z,56.09
2018-06-15T01:46:11.771Z,56.12
2018-06-15T01:47:11.766Z,55.98
2018-06-15T01:48:11.799Z,56.2
2018-06-15T01:49:11.824Z,56.04
2018-06-15T01:50:11.670Z,56.05
2018-06-15T01:51:11.789Z,56.08
2018-06-15T01:52:11.637Z,56.03
2018-06-15T01:53:11.638Z,56.12
2018-06-15T01:54:11.711Z,56.12
2018-06-15T01:55:11.731Z,56.06
2018-06-15T01:56:11.710Z,56.09
2018-06-15T01:57:12.071Z,56
2018-06-15T01:58:11.943Z,56.06
2018-06-15T01:59:11.741Z,56.05
2018-06-15T02:00:11.868Z,56
2018-06-15T02:01:11.784Z,56.03
2018-06-15T02:02:11.563Z,56.02
2018-06-15T02:03:11.712Z,56.1
2018-06-15T02:04:11.710Z,55.99
2018-06-15T02:05:11.798Z,56.1
2018-06-15T02:06:11.768Z,56.1
2018-06-15T02:07:11.658Z,56.01
2018-06-15T02:08:11.696Z,56.14
2018-06-15T02:09:11.749Z,56
2018-06-15T02:10:11.716Z,56.12
2018-06-15T02:11:11.568Z,55.93
2018-06-15T02:12:11.846Z,56.07
2018-06-15T02:13:11.733Z,56.03
2018-06-15T02:14:11.785Z,56.11
2018-06-15T02:15:11.706Z,56.1
2018-06-15T02:16:11.731Z,56.06
2018-06-15T02:17:11.600Z,56.05
2018-06-15T02:18:11.606Z,56.04
2018-06-15T02:19:11.772Z,56.03
2018-06-15T02:20:11.584Z,56.08
2018-06-15T02:21:11.771Z,56.06
2018-06-15T02:22:11.675Z,56.07
2018-06-15T02:23:11.728Z,56.05
2018-06-15T02:24:11.677Z,56.09
2018-06-15T02:25:11.587Z,56.1
2018-06-15T02:26:11.786Z,56.02
2018-06-15T02:27:11.799Z,56.05
2018-06-15T02:28:11.637Z,56.14
2018-06-15T02:29:11.558Z,56.07
2018-06-15T02:30:11.838Z,56.09
2018-06-15T02:31:11.760Z,56
2018-06-15T02:32:11.843Z,56.04
2018-06-15T02:33:11.659Z,56.14
2018-06-15T02:34:11.724Z,56.07
2018-06-15T02:35:11.626Z,56.11
2018-06-15T02:36:11.586Z,56.1
2018-06-15T02:37:11.668Z,56.05
2018-06-15T02:38:11.576Z,56.11
2018-06-15T02:39:11.644Z,56.01
2018-06-15T02:40:11.606Z,56.02
2018-06-15T02:41:11.670Z,56
2018-06-15T02:42:11.679Z,56.12
2018-06-15T02:43:11.651Z,56.01
2018-06-15T02:44:11.732Z,55.96
2018-06-15T02:45:11.890Z,56.06
2018-06-15T02:46:11.694Z,56.06
2018-06-15T02:47:11.667Z,56.05
2018-06-15T02:48:11.795Z,56.03
2018-06-15T02:49:11.745Z,55.95
2018-06-15T02:50:11.685Z,56.03
2018-06-15T02:51:11.677Z,56.04
2018-06-15T02:52:11.730Z,56.04
2018-06-15T02:53:11.718Z,56.02
2018-06-15T02:54:11.750Z,56.06
2018-06-15T02:55:11.724Z,56.01
2018-06-15T02:56:11.606Z,56.07
2018-06-15T02:57:11.699Z,56.12
2018-06-15T02:58:11.692Z,56.1
2018-06-15T02:59:11.608Z,56.03
2018-06-15T03:00:11.686Z,56.04
2018-06-15T03:01:11.671Z,56.11
2018-06-15T03:02:11.645Z,56.08
2018-06-15T03:03:11.686Z,56.11
2018-06-15T03:04:11.781Z,56.03
2018-06-15T03:05:11.575Z,56.01
2018-06-15T03:06:11.766Z,56.03
2018-06-15T03:07:11.794Z,56.06
2018-06-15T03:08:11.637Z,55.98
2018-06-15T03:09:11.777Z,56.04
2018-06-15T03:10:11.783Z,56.05
2018-06-15T03:11:11.675Z,56.14
2018-06-15T03:12:11.752Z,55.97
2018-06-15T03:13:11.879Z,56.02
2018-06-15T03:14:11.630Z,56.09
2018-06-15T03:15:11.563Z,56.01
2018-06-15T03:16:11.701Z,56
2018-06-15T03:17:11.727Z,56.03
2018-06-15T03:18:11.789Z,56
2018-06-15T03:19:11.806Z,56.06
2018-06-15T03:20:11.597Z,56
2018-06-15T03:21:11.623Z,56.1
2018-06-15T03:22:11.668Z,56.09
2018-06-15T03:23:11.519Z,56.02
2018-06-15T03:24:11.853Z,56.02
2018-06-15T03:25:11.719Z,55.96
2018-06-15T03:26:11.823Z,56.07
2018-06-15T03:27:11.627Z,56.06
2018-06-15T03:28:11.545Z,56.02
2018-06-15T03:29:11.576Z,55.96
2018-06-15T03:30:11.685Z,56.06
2018-06-15T03:31:11.758Z,56.02
2018-06-15T03:32:11.556Z,55.94
2018-06-15T03:33:11.727Z,56.04
2018-06-15T03:34:11.577Z,55.99
2018-06-15T03:35:11.708Z,56
2018-06-15T03:36:11.782Z,56.09
2018-06-15T03:37:11.820Z,56.02
2018-06-15T03:38:11.617Z,56.02
2018-06-15T03:39:11.539Z,56.07
2018-06-15T03:40:11.799Z,56.03
2018-06-15T03:41:11.506Z,56.04
2018-06-15T03:42:11.877Z,56.03
2018-06-15T03:43:12.010Z,55.96
2018-06-15T03:44:11.953Z,55.97
2018-06-15T03:45:11.892Z,56.01
2018-06-15T03:46:11.746Z,56.01
2018-06-15T03:47:11.842Z,55.97
2018-06-15T03:48:11.787Z,55.98
2018-06-15T03:49:11.591Z,55.98
2018-06-15T03:50:11.709Z,56.05
2018-06-15T03:51:11.727Z,56.05
2018-06-15T03:52:21.633Z,56
2018-06-15T03:53:11.893Z,56.05
2018-06-15T03:54:11.792Z,56
2018-06-15T03:55:11.910Z,56
2018-06-15T03:56:11.721Z,56.04
2018-06-15T03:57:11.852Z,56
2018-06-15T03:58:11.655Z,56.06
2018-06-15T03:59:11.813Z,55.94
2018-06-15T04:00:11.787Z,56.08
2018-06-15T04:01:11.607Z,56
2018-06-15T04:02:11.773Z,56.04
2018-06-15T04:03:11.700Z,56.06
2018-06-15T04:04:11.727Z,56.04
2018-06-15T04:05:11.650Z,56.07
2018-06-15T04:06:11.518Z,55.98
2018-06-15T04:07:11.712Z,56.02
2018-06-15T04:08:11.912Z,56.02
2018-06-15T04:09:11.766Z,56.01
2018-06-15T04:10:11.912Z,56
2018-06-15T04:11:11.704Z,56.05
2018-06-15T04:12:11.624Z,56.06
2018-06-15T04:13:11.681Z,55.98
2018-06-15T04:14:11.796Z,56
2018-06-15T04:15:11.788Z,56.05
2018-06-15T04:16:11.729Z,56.01
2018-06-15T04:17:11.890Z,56.1
2018-06-15T04:18:11.843Z,56.12
2018-06-15T04:19:11.774Z,56.12
2018-06-15T04:20:11.722Z,56.02
2018-06-15T04:21:11.792Z,56.08
2018-06-15T04:22:11.705Z,56.01
2018-06-15T04:23:11.816Z,56
2018-06-15T04:24:11.737Z,56.01
2018-06-15T04:25:11.834Z,56.09
2018-06-15T04:26:11.789Z,56.01
2018-06-15T04:27:11.690Z,56.07
2018-06-15T04:28:11.611Z,56.01
2018-06-15T04:29:11.913Z,56.05
2018-06-15T04:30:11.586Z,56.06
2018-06-15T04:31:11.993Z,56.08
2018-06-15T04:32:11.812Z,56.05
2018-06-15T04:33:21.581Z,56.07
2018-06-15T04:34:11.708Z,56.03
2018-06-15T04:35:11.718Z,55.94
2018-06-15T04:36:11.616Z,55.97
2018-06-15T04:37:11.758Z,56.04
2018-06-15T04:38:11.771Z,56.06
2018-06-15T04:39:11.713Z,56.06
2018-06-15T04:40:11.700Z,56.01
2018-06-15T04:41:11.623Z,56.04
2018-06-15T04:42:12.087Z,56.05
2018-06-15T04:43:11.523Z,56.05
2018-06-15T04:44:11.790Z,55.99
2018-06-15T04:45:11.761Z,55.98
2018-06-15T04:46:11.690Z,55.98
2018-06-15T04:47:11.695Z,55.97
2018-06-15T04:48:11.641Z,56.05
2018-06-15T04:49:11.689Z,56.09
2018-06-15T04:50:11.879Z,56.02
2018-06-15T04:51:11.728Z,55.99
2018-06-15T04:52:11.756Z,56.05
2018-06-15T04:53:11.602Z,56.04
2018-06-15T04:54:11.670Z,56
2018-06-15T04:55:11.754Z,55.99
2018-06-15T04:56:11.870Z,56.03
2018-06-15T04:57:11.575Z,56.02
2018-06-15T04:58:42.771Z,55.94
2018-06-15T04:59:11.705Z,56.02
2018-06-15T05:00:11.654Z,56.02
2018-06-15T05:01:11.604Z,56.04
2018-06-15T05:02:11.533Z,55.97
2018-06-15T05:03:12.109Z,56
2018-06-15T05:04:11.575Z,56.04
2018-06-15T05:05:11.636Z,56.07
2018-06-15T05:06:11.751Z,56.06
2018-06-15T05:07:11.756Z,56.03
2018-06-15T05:08:11.635Z,56.05
2018-06-15T05:09:11.578Z,56.05
2018-06-15T05:10:11.740Z,56.05
2018-06-15T05:11:11.622Z,55.95
2018-06-15T05:12:11.974Z,56.05
2018-06-15T05:13:11.804Z,56
2018-06-15T05:14:11.727Z,55.97
2018-06-15T05:15:11.556Z,56
2018-06-15T05:16:11.714Z,56.04
2018-06-15T05:17:11.970Z,56.08
2018-06-15T05:18:11.623Z,56
2018-06-15T05:19:11.660Z,56.02
2018-06-15T05:20:11.836Z,56.04
2018-06-15T05:21:11.616Z,56.04
2018-06-15T05:22:11.700Z,56.04
2018-06-15T05:23:11.616Z,55.99
2018-06-15T05:24:11.639Z,56.03
2018-06-15T05:25:11.664Z,56.06
2018-06-15T05:26:11.653Z,56.12
2018-06-15T05:27:11.651Z,56.02
2018-06-15T05:28:11.804Z,56.07
2018-06-15T05:29:11.716Z,56.08
2018-06-15T05:30:11.880Z,56.07
2018-06-15T05:31:11.755Z,56.06
2018-06-15T05:32:11.811Z,56.07
2018-06-15T05:33:11.499Z,56.09
2018-06-15T05:34:11.802Z,56.07
2018-06-15T05:35:11.891Z,56.12
2018-06-15T05:36:11.506Z,56.03
2018-06-15T05:37:11.478Z,56.05
2018-06-15T05:38:11.506Z,56.1
2018-06-15T05:39:11.732Z,56.04
2018-06-15T05:40:11.578Z,56.04
2018-06-15T05:41:11.749Z,56.01
2018-06-15T05:42:11.598Z,56.14
2018-06-15T05:43:11.542Z,56.11
2018-06-15T05:44:11.550Z,56.14
2018-06-15T05:45:11.603Z,56.05
2018-06-15T05:46:11.592Z,56.05
2018-06-15T05:47:11.531Z,56.01
2018-06-15T05:48:11.675Z,56.05
2018-06-15T05:49:11.662Z,56.04
2018-06-15T05:50:11.670Z,56.02
2018-06-15T05:51:11.623Z,56.1
2018-06-15T05:52:11.671Z,56.08
2018-06-15T05:53:11.576Z,56.14
2018-06-15T05:54:11.837Z,56.09
2018-06-15T05:55:11.683Z,56.1
2018-06-15T05:56:11.692Z,56.08
2018-06-15T05:57:11.748Z,56.01
2018-06-15T05:58:11.555Z,56.1
2018-06-15T05:59:11.908Z,56.03
2018-06-15T06:00:11.692Z,56.08
2018-06-15T06:01:11.595Z,56.09
2018-06-15T06:02:11.486Z,56.1
2018-06-15T06:03:11.570Z,56.11
2018-06-15T06:04:12.099Z,56.07
2018-06-15T06:05:11.769Z,56.1
2018-06-15T06:06:11.773Z,56.07
2018-06-15T06:07:11.543Z,56.07
2018-06-15T06:08:11.679Z,56.08
2018-06-15T06:09:11.721Z,56.06
2018-06-15T06:10:11.725Z,56.07
2018-06-15T06:11:11.797Z,56.03
2018-06-15T06:12:11.573Z,56.05
2018-06-15T06:13:11.628Z,56.08
2018-06-15T06:14:11.686Z,56.07
2018-06-15T06:15:11.656Z,56.03
2018-06-15T06:16:11.555Z,56.13
2018-06-15T06:17:11.633Z,56
2018-06-15T06:18:11.731Z,56.06
2018-06-15T06:19:11.550Z,56.01
2018-06-15T06:20:11.770Z,56.04
2018-06-15T06:21:11.656Z,56.01
2018-06-15T06:22:11.733Z,56.01
2018-06-15T06:23:11.649Z,56.02
2018-06-15T06:24:11.650Z,55.98
2018-06-15T06:25:11.565Z,56.07
2018-06-15T06:26:11.788Z,56.01
2018-06-15T06:27:11.816Z,56.04
2018-06-15T06:28:11.882Z,56.06
2018-06-15T06:29:21.703Z,56.07
2018-06-15T06:30:12.291Z,56.09
2018-06-15T06:31:11.724Z,56.09
2018-06-15T06:32:11.601Z,55.95
2018-06-15T06:33:11.732Z,56.07
2018-06-15T06:34:11.966Z,55.99
2018-06-15T06:35:11.526Z,56.08
2018-06-15T06:36:11.719Z,56.04
2018-06-15T06:37:11.770Z,56.04
2018-06-15T06:38:11.653Z,56
2018-06-15T06:39:11.497Z,55.99
2018-06-15T06:40:11.668Z,56
2018-06-15T06:41:11.735Z,56
2018-06-15T06:42:11.899Z,56.04
2018-06-15T06:43:11.594Z,56.04
2018-06-15T06:44:11.644Z,56.03
2018-06-15T06:45:11.523Z,56.06
2018-06-15T06:46:11.525Z,55.97
2018-06-15T06:47:11.695Z,56.01
2018-06-15T06:48:11.708Z,56.03
2018-06-15T06:49:11.566Z,56.06
2018-06-15T06:50:11.639Z,55.99
2018-06-15T06:51:12.028Z,56.05
2018-06-15T06:52:11.769Z,55.97
2018-06-15T06:53:11.608Z,56.01
2018-06-15T06:54:11.557Z,56.05
2018-06-15T06:55:11.693Z,56.05
2018-06-15T06:56:11.547Z,56.03
2018-06-15T06:57:11.571Z,55.99
2018-06-15T06:58:11.572Z,55.97
2018-06-15T06:59:11.793Z,55.98
2018-06-15T07:00:11.663Z,56.03
2018-06-15T07:01:11.780Z,56.05
2018-06-15T07:02:11.646Z,55.94
2018-06-15T07:03:11.862Z,56.01
2018-06-15T07:04:11.811Z,56
2018-06-15T07:05:11.651Z,56
2018-06-15T07:06:12.019Z,56.06
2018-06-15T07:07:11.661Z,56.05
2018-06-15T07:08:11.649Z,56.02
2018-06-15T07:09:11.655Z,56
2018-06-15T07:10:11.762Z,55.98
2018-06-15T07:11:11.681Z,56.02
2018-06-15T07:12:11.491Z,56.08
2018-06-15T07:13:11.860Z,56.06
2018-06-15T07:14:11.521Z,56.02
2018-06-15T07:15:11.753Z,56.07
2018-06-15T07:16:11.717Z,56.03
2018-06-15T07:17:11.909Z,55.98
2018-06-15T07:18:11.543Z,56.08
2018-06-15T07:19:11.634Z,56.05
2018-06-15T07:20:11.815Z,56.06
2018-06-15T07:21:11.477Z,56.03
2018-06-15T07:22:11.902Z,56.05
2018-06-15T07:23:11.725Z,55.94
2018-06-15T07:24:11.780Z,56.04
2018-06-15T07:25:11.859Z,56.04
2018-06-15T07:26:11.661Z,56.06
2018-06-15T07:27:11.700Z,56.04
2018-06-15T07:28:11.721Z,56.05
2018-06-15T07:29:11.834Z,56.06
2018-06-15T07:30:11.669Z,56.03
2018-06-15T07:31:11.739Z,55.95
2018-06-15T07:32:11.730Z,55.86
2018-06-15T07:33:11.843Z,55.97
2018-06-15T07:34:11.698Z,55.94
2018-06-15T07:35:11.756Z,56
2018-06-15T07:36:11.493Z,56.03
2018-06-15T07:37:11.770Z,55.96
2018-06-15T07:38:11.545Z,55.95
2018-06-15T07:39:11.593Z,55.98
2018-06-15T07:40:11.540Z,55.92
2018-06-15T07:41:11.607Z,56.11
2018-06-15T07:42:11.647Z,55.98
2018-06-15T07:43:11.689Z,56.04
2018-06-15T07:44:11.725Z,56.02
2018-06-15T07:45:11.624Z,55.96
2018-06-15T07:46:11.809Z,56.05
2018-06-15T07:47:11.740Z,56.03
2018-06-15T07:48:11.514Z,56.02
2018-06-15T07:49:11.500Z,55.99
2018-06-15T07:50:11.719Z,56.04
2018-06-15T07:51:11.574Z,56.04
2018-06-15T07:52:11.514Z,55.99
2018-06-15T07:53:11.704Z,56.01
2018-06-15T07:54:11.745Z,56.04
2018-06-15T07:55:11.629Z,56.01
2018-06-15T07:56:11.647Z,56.09
2018-06-15T07:57:11.370Z,55.99
2018-06-15T07:58:11.743Z,56.1
2018-06-15T07:59:11.646Z,56.06
2018-06-15T08:00:11.745Z,56.01
2018-06-15T08:01:11.451Z,56.05
2018-06-15T08:02:11.595Z,56.1
2018-06-15T08:03:11.673Z,56.05
2018-06-15T08:04:11.746Z,56.05
2018-06-15T08:05:11.471Z,56.12
2018-06-15T08:06:11.445Z,56.14
2018-06-15T08:07:11.509Z,56.05
2018-06-15T08:08:11.656Z,56.11
2018-06-15T08:09:11.543Z,56.07
2018-06-15T08:10:11.639Z,56.08
2018-06-15T08:11:11.662Z,55.98
2018-06-15T08:12:11.490Z,56.1
2018-06-15T08:13:11.611Z,56.05
2018-06-15T08:14:11.642Z,56.08
2018-06-15T08:15:36.475Z,56.05
2018-06-15T08:16:11.625Z,56.02
2018-06-15T08:17:11.584Z,56.04
2018-06-15T08:18:11.693Z,56.02
2018-06-15T08:19:11.765Z,56.06
2018-06-15T08:20:11.653Z,56.14
2018-06-15T08:21:11.661Z,56.1
2018-06-15T08:22:11.462Z,56.09
2018-06-15T08:23:11.581Z,56.16
2018-06-15T08:24:11.614Z,56.15
2018-06-15T08:25:48.503Z,56.09
2018-06-15T08:26:11.671Z,56.02
2018-06-15T08:27:11.690Z,56.07
2018-06-15T08:28:11.703Z,56.12
2018-06-15T08:29:11.637Z,55.96
2018-06-15T08:30:11.551Z,56.05
2018-06-15T08:31:11.684Z,55.97
2018-06-15T08:32:11.614Z,56.12
2018-06-15T08:33:11.654Z,56
2018-06-15T08:34:11.609Z,56.08
2018-06-15T08:35:11.564Z,56.01
2018-06-15T08:36:11.576Z,56.07
2018-06-15T08:37:11.802Z,56.1
2018-06-15T08:38:11.610Z,56.11
2018-06-15T08:39:11.516Z,56.16
2018-06-15T08:40:11.625Z,56.11
2018-06-15T08:41:11.708Z,56.15
2018-06-15T08:42:11.520Z,56.1
2018-06-15T08:43:11.623Z,56.13
2018-06-15T08:44:11.688Z,56.11
2018-06-15T08:45:11.531Z,56.1
2018-06-15T08:46:11.604Z,56.1
2018-06-15T08:47:11.573Z,56.19
2018-06-15T08:48:21.515Z,56.15
2018-06-15T08:49:11.721Z,56.13
2018-06-15T08:50:11.758Z,56.14
2018-06-15T08:51:11.727Z,56.08
2018-06-15T08:52:11.705Z,56.14
2018-06-15T08:53:11.707Z,56.09
2018-06-15T08:54:11.731Z,56.16
2018-06-15T08:55:11.768Z,56.2
2018-06-15T08:56:11.699Z,56.12
2018-06-15T08:57:11.488Z,56.33
2018-06-15T08:58:11.629Z,56.25
2018-06-15T08:59:11.733Z,56.15
2018-06-15T09:00:11.654Z,56.27
2018-06-15T09:01:11.559Z,56.09
2018-06-15T09:02:11.615Z,56.18
2018-06-15T09:03:11.710Z,56.11
2018-06-15T09:04:11.537Z,56.15
2018-06-15T09:05:11.654Z,56.28
2018-06-15T09:06:11.807Z,56.17
2018-06-15T09:07:11.503Z,56.2
2018-06-15T09:08:11.707Z,56.27
2018-06-15T09:09:11.774Z,56.36
2018-06-15T09:10:11.602Z,56.3
2018-06-15T09:11:11.715Z,56.43
2018-06-15T09:12:11.600Z,56.34
2018-06-15T09:13:11.514Z,56.33
2018-06-15T09:14:11.556Z,56.33
2018-06-15T09:15:11.573Z,56.38
2018-06-15T09:16:11.663Z,56.47
2018-06-15T09:17:11.595Z,56.34
2018-06-15T09:18:11.806Z,56.33
2018-06-15T09:19:11.773Z,56.25
2018-06-15T09:20:11.726Z,56.38
2018-06-15T09:21:11.741Z,56.31
2018-06-15T09:22:11.523Z,56.36
2018-06-15T09:23:11.632Z,56.3
2018-06-15T09:24:11.653Z,56.37
2018-06-15T09:25:11.664Z,56.38
2018-06-15T09:26:11.515Z,56.44
2018-06-15T09:27:11.577Z,56.32
2018-06-15T09:28:11.747Z,56.28
2018-06-15T09:29:11.688Z,56.32
2018-06-15T09:30:11.541Z,56.25
2018-06-15T09:31:11.583Z,56.26
2018-06-15T09:32:11.541Z,56.24
2018-06-15T09:33:11.702Z,56.34
2018-06-15T09:34:11.536Z,56.27
2018-06-15T09:35:11.601Z,56.16
2018-06-15T09:36:11.644Z,56.2
2018-06-15T09:37:11.597Z,56.14
2018-06-15T09:38:11.679Z,56.32
2018-06-15T09:39:11.518Z,56.25
2018-06-15T09:40:11.618Z,56.22
2018-06-15T09:41:11.599Z,56.12
2018-06-15T09:42:11.719Z,56.19
2018-06-15T09:43:11.972Z,56.27
2018-06-15T09:44:11.701Z,56.21
2018-06-15T09:45:11.673Z,56.18
2018-06-15T09:46:11.788Z,56.24
2018-06-15T09:47:11.473Z,55.98
2018-06-15T09:48:11.727Z,56.23
2018-06-15T09:49:11.544Z,56.28
2018-06-15T09:50:11.751Z,56.21
2018-06-15T09:51:11.684Z,56.15
2018-06-15T09:52:11.864Z,56.31
2018-06-15T09:53:11.705Z,56.27
2018-06-15T09:54:11.620Z,56.28
2018-06-15T09:55:11.837Z,56.22
2018-06-15T09:56:11.678Z,56.33
2018-06-15T09:57:11.642Z,56.25
2018-06-15T09:58:11.462Z,56.26
2018-06-15T09:59:11.614Z,56.42
2018-06-15T10:00:11.765Z,56.39
2018-06-15T10:01:11.670Z,56.3
2018-06-15T10:02:11.613Z,56.13
2018-06-15T10:03:11.533Z,56.23
2018-06-15T10:04:11.891Z,56.26
2018-06-15T10:05:11.739Z,56.2
2018-06-15T10:06:11.890Z,56.22
2018-06-15T10:07:11.500Z,56.22
2018-06-15T10:08:11.699Z,56.12
2018-06-15T10:09:11.736Z,56.21
2018-06-15T10:10:11.873Z,56.19
2018-06-15T10:11:11.761Z,56.22
2018-06-15T10:12:11.769Z,56.14
2018-06-15T10:13:11.641Z,56.21
2018-06-15T10:14:11.710Z,56.2
2018-06-15T10:15:11.700Z,56.09
2018-06-15T10:16:11.525Z,56.06
2018-06-15T10:17:11.634Z,56
2018-06-15T10:18:11.714Z,56.1
2018-06-15T10:19:11.610Z,55.99
2018-06-15T10:20:11.744Z,56.1
2018-06-15T10:21:11.479Z,56.11
2018-06-15T10:22:11.647Z,56.06
2018-06-15T10:23:11.594Z,56.19
2018-06-15T10:24:11.500Z,56.2
2018-06-15T10:25:11.464Z,56.1
2018-06-15T10:26:11.666Z,56.23
2018-06-15T10:27:11.720Z,56.06
2018-06-15T10:28:11.717Z,56.13
2018-06-15T10:29:11.586Z,56.11
2018-06-15T10:30:11.587Z,56.08
2018-06-15T10:31:11.626Z,56.17
2018-06-15T10:32:11.619Z,56.2
2018-06-15T10:33:11.458Z,56.08
2018-06-15T10:34:11.503Z,56.07
2018-06-15T10:35:11.596Z,55.91
2018-06-15T10:36:11.611Z,55.98
2018-06-15T10:37:11.646Z,55.93
2018-06-15T10:38:11.509Z,55.96
2018-06-15T10:38:54.266Z,57.99
2018-06-15T10:39:51.857Z,55.77
2018-06-15T10:40:52.007Z,55.73
2018-06-15T10:41:51.462Z,55.55
2018-06-15T10:42:51.763Z,55.49
2018-06-15T10:43:51.828Z,55.55
2018-06-15T10:44:51.729Z,55.19
2018-06-15T10:45:51.063Z,55.31
2018-06-15T10:46:50.949Z,55.35
2018-06-15T10:47:51.082Z,55.41
2018-06-15T10:48:51.434Z,55.54
2018-06-15T10:49:51.224Z,55.52
2018-06-15T10:50:51.360Z,55.53
2018-06-15T10:51:51.019Z,55.58
2018-06-15T10:52:32.598Z,55.26
2018-06-15T10:53:14.651Z,55.53
2018-06-15T10:54:14.658Z,55.57
2018-06-15T10:55:14.663Z,55.37
2018-06-15T10:56:14.606Z,55.13
2018-06-15T10:57:14.549Z,55.01
2018-06-15T10:58:14.595Z,55.1
2018-06-15T10:59:14.584Z,55.08
2018-06-15T11:00:14.480Z,55.18
2018-06-15T11:01:14.617Z,55.32
2018-06-15T11:02:14.437Z,55.48
2018-06-15T11:03:14.457Z,55.31
2018-06-15T11:04:14.493Z,55.47
2018-06-15T11:05:14.575Z,55.08
2018-06-15T11:05:45.380Z,55.07
2018-06-15T11:06:45.416Z,55.24
2018-06-15T11:07:45.274Z,55.25
2018-06-15T11:08:45.289Z,55.39
2018-06-15T11:09:45.475Z,55.32
2018-06-15T11:10:45.383Z,55.17
2018-06-15T11:11:45.388Z,55.34
2018-06-15T11:12:58.029Z,55.96
2018-06-15T11:13:57.926Z,55.29
2018-06-15T11:14:57.814Z,55.32
2018-06-15T11:15:57.880Z,55.4
2018-06-15T11:16:57.859Z,55.39
2018-06-15T11:17:57.975Z,55.62
2018-06-15T11:18:57.966Z,55.72
2018-06-15T11:19:58.057Z,55.58
2018-06-15T11:20:57.997Z,55.86
2018-06-15T11:21:57.955Z,55.68
2018-06-15T11:22:57.936Z,55.89
2018-06-15T11:23:57.942Z,56
2018-06-15T11:24:57.875Z,55.95
2018-06-15T11:25:58.015Z,55.75
2018-06-15T11:26:57.866Z,55.93
2018-06-15T11:27:58.023Z,55.91
2018-06-15T11:28:57.949Z,55.97
2018-06-15T11:29:57.753Z,56.04
2018-06-15T11:30:58.351Z,56.1
2018-06-15T11:31:57.925Z,56.16
2018-06-15T11:32:57.754Z,56
2018-06-15T11:33:57.889Z,56.05
2018-06-15T11:34:57.852Z,56.05
2018-06-15T11:35:57.927Z,56.06
2018-06-15T11:36:57.887Z,56.1
2018-06-15T11:37:57.935Z,56.08
2018-06-15T11:38:57.827Z,56.12
2018-06-15T11:39:57.986Z,56.08
2018-06-15T11:40:58.082Z,56.19
2018-06-15T11:41:57.802Z,56.04
2018-06-15T11:42:57.795Z,56.04
2018-06-15T11:43:57.877Z,56.22
2018-06-15T11:44:57.892Z,56.04
2018-06-15T11:45:57.947Z,56.09
2018-06-15T11:46:57.949Z,56.06
2018-06-15T11:47:57.834Z,56.28
2018-06-15T11:48:57.942Z,56.28
2018-06-15T11:49:57.914Z,56.26
2018-06-15T11:50:57.844Z,56.24
2018-06-15T11:51:57.989Z,56.18
2018-06-15T11:52:57.919Z,56.3
2018-06-15T11:53:57.844Z,56.2
2018-06-15T11:54:57.912Z,56.18
2018-06-15T11:55:57.753Z,56.42
2018-06-15T11:56:57.936Z,56.09
2018-06-15T11:57:57.829Z,56.1
2018-06-15T11:58:57.787Z,56.38
2018-06-15T11:59:57.732Z,56.28
2018-06-15T12:00:57.785Z,56.1
2018-06-15T12:01:57.931Z,56.05
2018-06-15T12:02:57.837Z,56.17
2018-06-15T12:03:58.037Z,56.13
2018-06-15T12:04:58.196Z,56.1
2018-06-15T12:05:58.052Z,55.94
2018-06-15T12:06:58.075Z,55.86
2018-06-15T12:07:58.146Z,56.05
2018-06-15T12:09:07.882Z,55.92
2018-06-15T12:09:58.091Z,56.1
2018-06-15T12:10:57.829Z,56
2018-06-15T12:11:57.873Z,56.1
2018-06-15T12:12:58.047Z,55.91
2018-06-15T12:13:57.868Z,56.13
2018-06-15T12:14:58.210Z,56.12
2018-06-15T12:15:58.202Z,56.2
2018-06-15T12:16:58.093Z,56.06
2018-06-15T12:17:58.152Z,56.35
2018-06-15T12:18:58.110Z,56.33
2018-06-15T12:19:58.097Z,56.21
2018-06-15T12:20:58.098Z,56.29
2018-06-15T12:21:57.968Z,56.3
2018-06-15T12:22:57.912Z,56.25
2018-06-15T12:23:58.140Z,56.31
2018-06-15T12:24:58.014Z,56.27
2018-06-15T12:25:57.865Z,56.47
2018-06-15T12:26:57.906Z,56.3
2018-06-15T12:27:58.068Z,56.34
2018-06-15T12:28:58.035Z,56.34
2018-06-15T12:29:57.952Z,56.26
2018-06-15T12:30:58.016Z,56.38
2018-06-15T12:31:57.879Z,56.68
2018-06-15T12:32:58.017Z,56.57
2018-06-15T12:33:58.059Z,56.5
2018-06-15T12:34:58.004Z,56.57
2018-06-15T12:35:58.091Z,56.59
2018-06-15T12:36:58.375Z,56.5
2018-06-15T12:37:57.916Z,56.52
2018-06-15T12:38:57.962Z,56.33
2018-06-15T12:39:58.076Z,56.29
2018-06-15T12:40:57.827Z,56.29
2018-06-15T12:41:57.984Z,56.46
2018-06-15T12:42:57.952Z,56.29
2018-06-15T12:43:57.841Z,56.41
2018-06-15T12:44:58.002Z,56.36
2018-06-15T12:45:58.065Z,56.37
2018-06-15T12:46:57.960Z,56.39
2018-06-15T12:47:57.843Z,56.39
2018-06-15T12:48:57.974Z,56.12
2018-06-15T12:50:07.992Z,56.3
2018-06-15T12:50:58.082Z,56.08
2018-06-15T12:51:57.989Z,56.29
2018-06-15T12:52:58.061Z,56.53
2018-06-15T12:53:57.967Z,56.45
2018-06-15T12:54:57.838Z,56.61
2018-06-15T12:55:57.848Z,56.46
2018-06-15T12:56:58.003Z,56.4